Impacts METAR Board
IDs:

KMIA - Miami Intl, FL, US

Updated at: 1600 UTC 03 Dec 2021
Potential Impact None Slight Moderate High
Time 03/04Z 03/05Z 03/06Z 03/07Z 03/08Z 03/09Z 03/10Z 03/11Z 03/12Z 03/13Z 03/14Z 03/15Z 03/16Z
Temp70 68 68 66 66 65 64 64 64 67 71 73 76
Dewpt61 61 62 61 60 59 56 55 54 47 41 47 43
Altim30.13 30.12 30.10 30.10 30.09 30.08 30.09 30.09 30.10 30.11 30.13 30.14 30.14
VIS10 10 10 10 10 10 10 10 10 10 10 10 10
CIG-- -- -- -- -- -- -- -- -- -- -- -- --
CoverFEWCLRCLRCLRCLRCLRCLRFEWCLRFEWFEWFEWFEW
FltCatVFRVFRVFRVFRVFRVFRVFRVFRVFRVFRVFRVFRVFR
WX--------------------------
WDir36036036003203400000030350
WSpd3 3 3 0 3 3 0 0 0 3 4 5 5
WGst-- -- -- -- -- -- -- -- -- -- -- -- --
Raw hourly METARs
KMIA 030353Z 36003KT 10SM FEW250 21/16 A3013 RMK AO2 SLP202 T02110161 $
KMIA 030453Z 36003KT 10SM CLR 20/16 A3012 RMK AO2 SLP199 T02000161 402720161 $
KMIA 030553Z 36003KT 10SM CLR 20/17 A3010 RMK AO2 SLP194 T02000167 10233 20189 58009 $
KMIA 030653Z 00000KT 10SM CLR 19/16 A3010 RMK AO2 SLP193 T01890161 $
KMIA 030753Z 32003KT 10SM CLR 19/16 A3009 RMK AO2 SLP190 T01890156 $
KMIA 030853Z 34003KT 10SM CLR 18/15 A3008 RMK AO2 SLP187 T01830150 58006 $
KMIA 030953Z 00000KT 10SM CLR 18/13 A3009 RMK AO2 SLP187 T01780133 $
KMIA 031053Z 00000KT 10SM FEW250 18/13 A3009 RMK AO2 SLP189 T01780128 $
KMIA 031153Z 00000KT 10SM CLR 18/12 A3010 RMK AO2 SLP191 T01780122 10200 20172 53004 $
KMIA 031253Z VRB03KT 10SM FEW025 FEW250 19/08 A3011 RMK AO2 SLP195 T01940083 $
KMIA 031353Z VRB04KT 10SM FEW025 FEW250 22/05 A3013 RMK AO2 SLP202 T02170050 $
KMIA 031453Z 03005KT 10SM FEW025 FEW250 23/08 A3014 RMK AO2 SLP205 T02280083 51014 $
KMIA 031553Z 35005KT 10SM FEW030 FEW250 24/06 A3014 RMK AO2 SLP205 T02440061



Page loaded:  16:04 UTC  |   08:04 AM Pacific  |   09:04 AM Mountain  |   10:04 AM Central  |   11:04 AM Eastern

 

ADVISORIES

FORECASTS

FORECASTS

OBSERVATIONS

USER TOOLS

ABOUT US